createdAt,value
2023-03-30T00:01:15.382Z,5.65
2023-03-30T00:03:43.429Z,7.40
2023-03-30T00:06:11.667Z,5.85
2023-03-30T00:08:38.748Z,6.32
2023-03-30T00:11:10.284Z,6.78
2023-03-30T00:13:37.932Z,6.28
2023-03-30T00:16:07.085Z,6.53
2023-03-30T00:18:34.814Z,7.25
2023-03-30T00:21:05.798Z,8.63
2023-03-30T00:23:33.848Z,5.22
2023-03-30T00:26:01.008Z,5.00
2023-03-30T00:28:30.896Z,6.50
2023-03-30T00:30:58.111Z,7.88
2023-03-30T00:33:37.160Z,10.18
2023-03-30T00:36:09.273Z,10.40
2023-03-30T00:38:36.305Z,5.95
2023-03-30T00:41:03.448Z,6.93
2023-03-30T00:43:30.829Z,6.22
2023-03-30T00:45:58.512Z,5.88
2023-03-30T00:48:36.972Z,6.75
2023-03-30T00:51:11.464Z,6.18
2023-03-30T00:53:43.375Z,5.85
2023-03-30T00:56:13.174Z,6.80
2023-03-30T00:58:41.416Z,11.18
2023-03-30T01:01:13.320Z,6.30
2023-03-30T01:03:52.182Z,9.85
2023-03-30T01:06:24.583Z,7.10
2023-03-30T01:08:53.303Z,7.15
2023-03-30T01:11:21.305Z,6.45
2023-03-30T01:13:54.682Z,5.15
2023-03-30T01:16:44.236Z,5.38
2023-03-30T01:19:36.283Z,7.45
2023-03-30T01:22:13.041Z,7.13
2023-03-30T01:25:20.652Z,6.28
2023-03-30T01:28:28.786Z,6.38
2023-03-30T01:31:07.566Z,7.90
2023-03-30T01:34:23.988Z,5.82
2023-03-30T01:37:00.027Z,6.10
2023-03-30T01:39:37.238Z,7.43
2023-03-30T01:42:19.978Z,6.88
2023-03-30T01:45:00.735Z,5.45
2023-03-30T01:47:30.717Z,7.53
2023-03-30T01:50:25.959Z,8.80
2023-03-30T01:52:55.823Z,7.22
2023-03-30T01:55:28.478Z,7.90
2023-03-30T01:58:01.700Z,7.47
2023-03-30T02:00:30.237Z,9.10
2023-03-30T02:03:11.716Z,8.73
2023-03-30T02:05:41.067Z,7.35
2023-03-30T02:08:13.631Z,8.80
2023-03-30T02:10:42.684Z,7.70
2023-03-30T02:13:11.503Z,6.50
2023-03-30T02:15:42.728Z,7.32
2023-03-30T02:18:11.016Z,7.88
2023-03-30T02:20:39.176Z,8.60
2023-03-30T02:23:07.635Z,7.82
2023-03-30T02:25:38.675Z,7.30
2023-03-30T02:28:09.410Z,9.50
2023-03-30T02:30:42.843Z,6.65
2023-03-30T02:33:24.585Z,9.55
2023-03-30T02:36:14.293Z,8.10
2023-03-30T02:39:05.268Z,6.97
2023-03-30T02:42:01.047Z,7.93
2023-03-30T02:44:36.890Z,8.85
2023-03-30T02:47:13.615Z,7.38
2023-03-30T02:49:43.576Z,7.40
2023-03-30T02:52:37.083Z,10.40
2023-03-30T02:55:26.069Z,11.70
2023-03-30T02:58:23.860Z,8.88
2023-03-30T03:01:11.177Z,7.35
2023-03-30T03:03:44.299Z,6.65
2023-03-30T03:06:14.744Z,10.10
2023-03-30T03:08:44.386Z,9.25
2023-03-30T03:11:11.778Z,8.45
2023-03-30T03:13:39.266Z,9.02
2023-03-30T03:16:11.089Z,11.48
2023-03-30T03:18:42.188Z,9.40
2023-03-30T03:21:11.614Z,8.65
2023-03-30T03:23:38.712Z,7.60
2023-03-30T03:26:06.853Z,7.95
2023-03-30T03:28:34.687Z,8.57
2023-03-30T03:31:02.851Z,8.45
2023-03-30T03:33:32.090Z,10.85
2023-03-30T03:36:00.630Z,10.38
2023-03-30T03:38:28.838Z,8.85
2023-03-30T03:40:58.607Z,13.73
2023-03-30T03:43:26.300Z,7.80
2023-03-30T03:45:53.707Z,7.63
2023-03-30T03:48:22.656Z,9.60
2023-03-30T03:50:59.525Z,7.82
2023-03-30T03:53:28.325Z,8.20
2023-03-30T03:55:55.510Z,8.73
2023-03-30T03:58:23.524Z,10.48
2023-03-30T04:00:51.249Z,7.90
2023-03-30T04:03:18.579Z,9.98
2023-03-30T04:05:45.745Z,7.50
2023-03-30T04:08:12.773Z,8.30
2023-03-30T04:10:41.408Z,8.60
2023-03-30T04:13:08.475Z,7.43
2023-03-30T04:15:35.956Z,9.38
2023-03-30T04:18:05.447Z,9.50
2023-03-30T04:20:32.595Z,9.75
2023-03-30T04:23:02.175Z,7.03
2023-03-30T04:25:29.395Z,8.88
2023-03-30T04:27:57.499Z,10.88
2023-03-30T04:30:24.910Z,9.85
2023-03-30T04:33:02.821Z,11.48
2023-03-30T04:35:34.579Z,9.85
2023-03-30T04:38:02.631Z,12.80
2023-03-30T04:40:30.435Z,9.13
2023-03-30T04:43:02.851Z,10.35
2023-03-30T04:45:33.057Z,8.88
2023-03-30T04:48:00.048Z,9.25
2023-03-30T04:50:27.131Z,12.77
2023-03-30T04:52:54.120Z,9.05
2023-03-30T04:55:21.200Z,10.73
2023-03-30T04:57:48.229Z,8.43
2023-03-30T05:00:17.656Z,12.68
2023-03-30T05:02:44.831Z,10.50
2023-03-30T05:05:12.032Z,13.38
2023-03-30T05:07:39.282Z,9.27
2023-03-30T05:10:06.689Z,10.05
2023-03-30T05:12:33.667Z,9.75
2023-03-30T05:15:00.662Z,10.05
2023-03-30T05:17:27.746Z,20.98
2023-03-30T05:19:54.873Z,15.20
2023-03-30T05:22:21.973Z,12.18
2023-03-30T05:24:48.975Z,10.43
2023-03-30T05:27:16.142Z,12.18
2023-03-30T05:29:43.245Z,13.57
2023-03-30T05:32:10.260Z,8.80
2023-03-30T05:34:37.299Z,9.80
2023-03-30T05:37:04.356Z,12.00
2023-03-30T05:39:31.542Z,10.52
2023-03-30T05:41:58.567Z,10.93
2023-03-30T05:44:26.036Z,8.57
2023-03-30T05:46:54.049Z,11.65
2023-03-30T05:49:21.147Z,10.05
2023-03-30T05:51:48.380Z,11.98
2023-03-30T05:54:15.538Z,11.20
2023-03-30T05:56:42.786Z,7.25
2023-03-30T05:59:10.594Z,11.85
2023-03-30T06:01:38.047Z,11.05
2023-03-30T06:04:05.704Z,9.98
2023-03-30T06:06:32.809Z,10.25
2023-03-30T06:08:59.831Z,10.80
2023-03-30T06:11:28.557Z,11.05
2023-03-30T06:13:55.554Z,7.97
2023-03-30T06:16:22.836Z,8.43
2023-03-30T06:18:50.023Z,8.43
2023-03-30T06:21:17.259Z,10.60
2023-03-30T06:23:44.624Z,11.10
2023-03-30T06:26:11.705Z,9.98
2023-03-30T06:28:38.740Z,8.50
2023-03-30T06:31:12.608Z,9.63
2023-03-30T06:33:41.800Z,9.45
2023-03-30T06:36:15.428Z,10.50
2023-03-30T06:38:45.731Z,13.02
2023-03-30T06:41:13.142Z,10.25
2023-03-30T06:43:40.464Z,8.75
2023-03-30T06:46:08.461Z,9.48
2023-03-30T06:48:35.988Z,11.30
2023-03-30T06:51:04.575Z,11.98
2023-03-30T06:53:31.894Z,10.30
2023-03-30T06:55:59.449Z,8.13
2023-03-30T06:58:27.927Z,9.93
2023-03-30T07:00:55.210Z,9.82
2023-03-30T07:03:22.376Z,11.90
2023-03-30T07:05:50.917Z,9.95
2023-03-30T07:08:19.549Z,9.15
2023-03-30T07:10:48.064Z,11.52
2023-03-30T07:13:16.696Z,15.98
2023-03-30T07:15:46.209Z,9.43
2023-03-30T07:18:13.484Z,9.70
2023-03-30T07:20:40.798Z,10.00
2023-03-30T07:23:08.059Z,8.00
2023-03-30T07:25:35.157Z,9.35
2023-03-30T07:28:02.344Z,8.02
2023-03-30T07:30:29.545Z,9.65
2023-03-30T07:32:58.335Z,13.65
2023-03-30T07:35:26.324Z,11.18
2023-03-30T07:38:02.273Z,7.97
2023-03-30T07:40:30.207Z,8.70
2023-03-30T07:42:57.423Z,9.48
2023-03-30T07:45:24.428Z,10.80
2023-03-30T07:47:51.512Z,9.48
2023-03-30T07:50:18.621Z,10.80
2023-03-30T07:52:45.615Z,12.05
2023-03-30T07:55:13.206Z,8.60
2023-03-30T07:57:40.228Z,8.90
2023-03-30T08:00:10.528Z,12.23
2023-03-30T08:02:38.064Z,9.27
2023-03-30T08:05:05.666Z,14.35
2023-03-30T08:07:34.425Z,7.60
2023-03-30T08:10:01.679Z,9.27
2023-03-30T08:12:28.743Z,10.95
2023-03-30T08:14:58.618Z,9.27
2023-03-30T08:17:26.143Z,10.13
2023-03-30T08:19:53.149Z,8.32
2023-03-30T08:22:20.136Z,8.90
2023-03-30T08:24:47.118Z,9.98
2023-03-30T08:27:14.194Z,8.90
2023-03-30T08:29:41.346Z,7.45
2023-03-30T08:32:08.562Z,12.43
2023-03-30T08:34:37.277Z,14.90
2023-03-30T08:37:05.791Z,11.88
2023-03-30T08:39:33.410Z,7.95
2023-03-30T08:42:19.420Z,9.75
2023-03-30T08:44:52.738Z,8.77
2023-03-30T08:47:33.739Z,9.57
2023-03-30T08:50:11.557Z,9.23
2023-03-30T08:52:42.099Z,13.32
2023-03-30T08:55:38.714Z,9.13
2023-03-30T08:58:11.600Z,10.88
2023-03-30T09:01:11.181Z,9.73
2023-03-30T09:04:02.437Z,10.95
2023-03-30T09:06:50.098Z,11.05
2023-03-30T09:09:19.939Z,9.35
2023-03-30T09:11:53.206Z,12.10
2023-03-30T09:14:34.568Z,9.30
2023-03-30T09:17:17.271Z,8.23
2023-03-30T09:20:13.467Z,16.70
2023-03-30T09:22:42.527Z,11.48
2023-03-30T09:25:34.192Z,8.23
2023-03-30T09:28:17.401Z,8.52
2023-03-30T09:31:03.012Z,11.00
2023-03-30T09:34:08.980Z,10.77
2023-03-30T09:37:04.094Z,5.55
2023-03-30T09:39:34.775Z,5.40
2023-03-30T09:42:17.214Z,5.30
2023-03-30T09:44:52.727Z,7.00
2023-03-30T09:47:28.309Z,10.73
2023-03-30T09:50:00.727Z,7.40
2023-03-30T09:52:30.274Z,5.15
2023-03-30T09:54:57.495Z,8.57
2023-03-30T09:57:32.900Z,7.63
2023-03-30T10:00:01.586Z,7.40
2023-03-30T10:02:31.651Z,6.47
2023-03-30T10:05:02.503Z,6.53
2023-03-30T10:07:34.132Z,9.20
2023-03-30T10:10:13.653Z,9.73
2023-03-30T10:12:40.990Z,8.15
2023-03-30T10:15:16.975Z,7.03
2023-03-30T10:17:46.878Z,5.90
2023-03-30T10:20:21.140Z,9.35
2023-03-30T10:22:52.714Z,6.20
2023-03-30T10:25:23.950Z,9.52
2023-03-30T10:27:56.072Z,5.80
2023-03-30T10:30:28.671Z,8.80
2023-03-30T10:33:02.242Z,5.80
2023-03-30T10:35:36.509Z,6.20
2023-03-30T10:38:07.241Z,10.75
2023-03-30T10:40:41.505Z,7.82
2023-03-30T10:43:20.056Z,5.47
2023-03-30T10:46:06.089Z,4.63
2023-03-30T10:48:48.841Z,5.33
2023-03-30T10:51:39.914Z,7.63
2023-03-30T10:54:21.761Z,5.28
2023-03-30T10:56:52.494Z,5.75
2023-03-30T10:59:55.606Z,4.78
2023-03-30T11:02:26.771Z,5.90
2023-03-30T11:05:05.964Z,3.50
2023-03-30T11:07:45.618Z,10.73
2023-03-30T11:10:17.091Z,8.50
2023-03-30T11:13:03.842Z,6.32
2023-03-30T11:15:56.142Z,4.93
2023-03-30T11:18:31.520Z,10.97
2023-03-30T11:21:45.423Z,9.53
2023-03-30T11:24:20.244Z,5.53
2023-03-30T11:27:17.330Z,2.80
2023-03-30T11:29:48.540Z,10.60
2023-03-30T11:32:34.373Z,5.97
2023-03-30T11:35:36.456Z,8.60
2023-03-30T11:38:28.509Z,5.37
2023-03-30T11:41:15.993Z,6.23
2023-03-30T11:43:43.762Z,8.90
2023-03-30T11:46:24.741Z,8.23
2023-03-30T11:49:17.972Z,5.37
2023-03-30T11:52:01.248Z,5.27
2023-03-30T11:54:43.226Z,4.90
2023-03-30T11:57:25.578Z,6.40
2023-03-30T12:00:09.777Z,11.90
2023-03-30T12:03:02.086Z,3.47
2023-03-30T12:05:36.691Z,8.27
2023-03-30T12:08:26.345Z,9.60
2023-03-30T12:11:14.100Z,8.37
2023-03-30T12:13:50.674Z,7.20
2023-03-30T12:16:27.542Z,9.07
2023-03-30T12:19:04.192Z,10.20
2023-03-30T12:21:39.199Z,9.03
2023-03-30T12:24:29.578Z,8.40
2023-03-30T12:27:05.336Z,7.47
2023-03-30T12:30:01.494Z,13.40
2023-03-30T12:32:31.080Z,10.40
2023-03-30T12:34:58.849Z,9.73
2023-03-30T12:37:38.290Z,9.07
2023-03-30T12:40:22.553Z,8.60
2023-03-30T12:43:11.151Z,7.73
2023-03-30T12:46:02.276Z,9.80
2023-03-30T12:49:04.263Z,9.77
2023-03-30T12:52:09.883Z,9.83
2023-03-30T12:54:44.394Z,11.30
2023-03-30T12:57:22.736Z,13.27
2023-03-30T12:59:49.846Z,11.05
2023-03-30T13:02:55.220Z,11.45
2023-03-30T13:05:32.254Z,9.38
2023-03-30T13:08:23.555Z,8.35
2023-03-30T13:10:50.716Z,8.27
2023-03-30T13:13:48.841Z,10.25
2023-03-30T13:17:08.717Z,9.77
2023-03-30T13:19:38.386Z,8.95
2023-03-30T13:22:13.959Z,9.35
2023-03-30T13:24:53.848Z,10.40
2023-03-30T13:27:30.318Z,10.00
2023-03-30T13:30:09.166Z,16.08
2023-03-30T13:32:36.170Z,12.45
2023-03-30T13:35:31.407Z,9.15
2023-03-30T13:38:16.979Z,11.23
2023-03-30T13:41:07.998Z,8.63
2023-03-30T13:43:51.384Z,8.95
2023-03-30T13:46:32.776Z,9.85
2023-03-30T13:49:19.551Z,10.35
2023-03-30T13:51:47.896Z,8.05
2023-03-30T13:54:21.686Z,13.05
2023-03-30T13:56:59.730Z,13.30
2023-03-30T13:59:31.936Z,9.93
2023-03-30T14:02:01.702Z,15.18
2023-03-30T14:04:31.024Z,10.45
2023-03-30T14:06:58.666Z,12.55
2023-03-30T14:09:28.883Z,9.00
2023-03-30T14:11:58.980Z,9.25
2023-03-30T14:14:39.420Z,12.13
2023-03-30T14:17:19.916Z,11.07
2023-03-30T14:20:09.564Z,13.13
2023-03-30T14:22:41.594Z,9.63
2023-03-30T14:25:22.673Z,10.60
2023-03-30T14:27:49.768Z,11.35
2023-03-30T14:30:22.995Z,10.68
2023-03-30T14:33:28.790Z,12.23
2023-03-30T14:35:58.483Z,13.25
2023-03-30T14:38:41.365Z,11.48
2023-03-30T14:41:23.443Z,12.32
2023-03-30T14:43:53.614Z,12.63
2023-03-30T14:46:22.657Z,11.45
2023-03-30T14:48:50.865Z,11.80
2023-03-30T14:51:37.585Z,11.38
2023-03-30T14:54:06.408Z,11.70
2023-03-30T14:56:33.814Z,13.98
2023-03-30T14:59:01.982Z,11.18
2023-03-30T15:01:33.549Z,11.57
2023-03-30T15:04:11.130Z,8.05
2023-03-30T15:06:38.781Z,13.63
2023-03-30T15:09:13.476Z,11.35
2023-03-30T15:11:41.146Z,11.85
2023-03-30T15:14:10.109Z,12.10
2023-03-30T15:16:37.903Z,9.35
2023-03-30T15:19:31.140Z,13.13
2023-03-30T15:22:04.987Z,11.18
2023-03-30T15:24:36.028Z,11.90
2023-03-30T15:27:05.996Z,10.82
2023-03-30T15:29:34.082Z,14.63
2023-03-30T15:32:14.764Z,14.20
2023-03-30T15:35:15.734Z,14.55
2023-03-30T15:37:57.930Z,15.77
2023-03-30T15:40:41.693Z,15.18
2023-03-30T15:43:18.903Z,20.80
2023-03-30T15:45:53.168Z,15.75
2023-03-30T15:48:23.924Z,16.92
2023-03-30T15:51:02.782Z,16.02
2023-03-30T15:53:49.482Z,17.85
2023-03-30T15:56:38.439Z,15.63
2023-03-30T15:59:09.976Z,17.67
2023-03-30T16:01:56.734Z,14.77
2023-03-30T16:04:25.172Z,14.90
2023-03-30T16:06:52.929Z,14.55
2023-03-30T16:09:20.165Z,17.17
2023-03-30T16:11:47.647Z,16.70
2023-03-30T16:14:20.593Z,21.00
2023-03-30T16:16:48.731Z,15.35
2023-03-30T16:19:18.806Z,16.35
2023-03-30T16:21:46.336Z,18.50
2023-03-30T16:24:13.764Z,18.80
2023-03-30T16:26:41.021Z,24.30
2023-03-30T16:29:20.492Z,23.15
2023-03-30T16:31:48.981Z,21.83
2023-03-30T16:34:17.037Z,19.40
2023-03-30T16:36:45.881Z,16.50
2023-03-30T16:39:30.463Z,21.30
2023-03-30T16:41:58.062Z,30.15
2023-03-30T16:44:26.364Z,22.67
2023-03-30T16:46:53.390Z,18.00
2023-03-30T16:49:25.707Z,24.02
2023-03-30T16:51:55.335Z,21.08
2023-03-30T16:54:31.899Z,19.45
2023-03-30T16:57:01.368Z,24.45
2023-03-30T16:59:30.944Z,18.90
2023-03-30T17:02:02.258Z,17.50
2023-03-30T17:04:29.512Z,27.38
2023-03-30T17:06:56.683Z,22.63
2023-03-30T17:09:23.811Z,19.23
2023-03-30T17:11:51.557Z,19.38
2023-03-30T17:14:20.524Z,21.27
2023-03-30T17:16:48.113Z,25.67
2023-03-30T17:19:17.181Z,20.98
2023-03-30T17:21:46.137Z,17.40
2023-03-30T17:24:15.827Z,19.20
2023-03-30T17:26:43.658Z,22.08
2023-03-30T17:29:11.610Z,21.98
2023-03-30T17:31:39.519Z,19.67
2023-03-30T17:34:07.663Z,24.30
2023-03-30T17:36:35.551Z,20.38
2023-03-30T17:39:07.816Z,21.58
2023-03-30T17:41:35.892Z,20.73
2023-03-30T17:44:03.478Z,30.85
2023-03-30T17:46:33.054Z,24.95
2023-03-30T17:49:01.243Z,16.05
2023-03-30T17:51:30.034Z,18.27
2023-03-30T17:53:59.212Z,17.45
2023-03-30T17:56:27.266Z,14.45
2023-03-30T17:58:55.073Z,22.77
2023-03-30T18:01:23.186Z,13.45
2023-03-30T18:03:51.191Z,17.42
2023-03-30T18:06:18.826Z,12.43
2023-03-30T18:08:46.117Z,9.45
2023-03-30T18:11:15.058Z,13.55
2023-03-30T18:13:42.956Z,9.05
2023-03-30T18:16:18.070Z,6.82
2023-03-30T18:18:46.349Z,6.50
2023-03-30T18:21:15.501Z,7.15
2023-03-30T18:23:43.647Z,4.90
2023-03-30T18:26:13.976Z,10.60
2023-03-30T18:28:46.969Z,5.40
2023-03-30T18:31:15.117Z,5.10
2023-03-30T18:33:43.350Z,8.00
2023-03-30T18:36:13.469Z,6.20
2023-03-30T18:38:43.493Z,5.72
2023-03-30T18:41:13.606Z,3.92
2023-03-30T18:43:41.384Z,2.55
2023-03-30T18:46:14.682Z,7.70
2023-03-30T18:48:42.890Z,3.75
2023-03-30T18:51:13.546Z,5.07
2023-03-30T18:53:43.663Z,4.93
2023-03-30T18:56:14.530Z,2.47
2023-03-30T18:58:44.339Z,3.35
2023-03-30T19:01:13.886Z,3.17
2023-03-30T19:03:42.795Z,3.30
2023-03-30T19:06:23.464Z,3.20
2023-03-30T19:08:52.491Z,5.95
2023-03-30T19:11:26.848Z,3.20
2023-03-30T19:13:54.894Z,3.80
2023-03-30T19:16:23.436Z,4.72
2023-03-30T19:18:52.604Z,4.55
2023-03-30T19:21:20.783Z,2.42
2023-03-30T19:23:48.480Z,2.22
2023-03-30T19:26:16.869Z,2.08
2023-03-30T19:28:44.894Z,2.25
2023-03-30T19:31:16.607Z,2.78
2023-03-30T19:33:45.160Z,3.13
2023-03-30T19:36:13.063Z,2.40
2023-03-30T19:38:44.593Z,2.42
2023-03-30T19:41:12.816Z,3.40
2023-03-30T19:43:41.304Z,5.07
2023-03-30T19:46:09.510Z,3.72
2023-03-30T19:48:37.713Z,1.70
2023-03-30T19:51:06.647Z,2.05
2023-03-30T19:53:35.385Z,1.80
2023-03-30T19:56:03.459Z,2.88
2023-03-30T19:58:31.172Z,2.20
2023-03-30T20:01:04.842Z,2.25
2023-03-30T20:03:36.562Z,3.92
2023-03-30T20:06:05.362Z,3.40
2023-03-30T20:08:33.244Z,2.75
2023-03-30T20:11:00.425Z,4.10
2023-03-30T20:13:28.017Z,1.65
2023-03-30T20:15:56.435Z,4.45
2023-03-30T20:18:24.024Z,1.77
2023-03-30T20:20:51.284Z,4.28
2023-03-30T20:23:18.631Z,2.05
2023-03-30T20:25:49.462Z,2.00
2023-03-30T20:28:18.749Z,1.95
2023-03-30T20:30:47.187Z,1.88
2023-03-30T20:33:14.604Z,3.70
2023-03-30T20:35:42.139Z,4.25
2023-03-30T20:38:10.284Z,2.58
2023-03-30T20:40:38.608Z,2.55
2023-03-30T20:43:10.459Z,2.88
2023-03-30T20:46:01.569Z,2.58
2023-03-30T20:48:33.836Z,3.58
2023-03-30T20:51:05.455Z,2.70
2023-03-30T20:53:34.229Z,2.22
2023-03-30T20:56:02.374Z,2.45
2023-03-30T20:58:30.022Z,5.43
2023-03-30T21:01:02.229Z,2.75
2023-03-30T21:03:29.555Z,4.55
2023-03-30T21:06:05.191Z,3.35
2023-03-30T21:08:33.431Z,2.63
2023-03-30T21:11:01.808Z,3.30
2023-03-30T21:13:28.999Z,2.60
2023-03-30T21:16:02.412Z,2.80
2023-03-30T21:18:30.174Z,2.28
2023-03-30T21:20:57.578Z,2.63
2023-03-30T21:23:27.432Z,9.65
2023-03-30T21:25:56.732Z,1.48
2023-03-30T21:28:24.842Z,1.90
2023-03-30T21:30:51.944Z,2.92
2023-03-30T21:33:19.124Z,3.22
2023-03-30T21:35:53.432Z,4.85
2023-03-30T21:38:21.827Z,1.73
2023-03-30T21:40:55.671Z,2.08
2023-03-30T21:43:23.432Z,1.70
2023-03-30T21:45:56.207Z,2.17
2023-03-30T21:48:25.389Z,1.70
2023-03-30T21:50:59.468Z,2.83
2023-03-30T21:53:27.529Z,1.60
2023-03-30T21:55:54.690Z,2.60
2023-03-30T21:58:22.945Z,2.38
2023-03-30T22:00:58.336Z,1.40
2023-03-30T22:03:36.387Z,1.67
2023-03-30T22:06:08.080Z,3.13
2023-03-30T22:08:36.218Z,2.38
2023-03-30T22:11:04.856Z,1.70
2023-03-30T22:13:32.826Z,1.35
2023-03-30T22:16:01.233Z,1.88
2023-03-30T22:18:29.111Z,1.33
2023-03-30T22:21:04.193Z,2.35
2023-03-30T22:23:32.563Z,2.60
2023-03-30T22:26:00.503Z,3.88
2023-03-30T22:28:27.637Z,2.58
2023-03-30T22:30:54.940Z,1.17
2023-03-30T22:33:22.125Z,1.80
2023-03-30T22:35:49.408Z,1.15
2023-03-30T22:38:16.691Z,2.67
2023-03-30T22:40:43.837Z,1.20
2023-03-30T22:43:12.690Z,2.15
2023-03-30T22:45:40.782Z,2.22
2023-03-30T22:48:07.915Z,2.75
2023-03-30T22:50:36.415Z,1.35
2023-03-30T22:53:03.463Z,1.98
2023-03-30T22:55:30.631Z,2.97
2023-03-30T22:57:57.921Z,2.15
2023-03-30T23:00:25.669Z,1.50
2023-03-30T23:02:52.988Z,1.23
2023-03-30T23:05:21.504Z,3.05
2023-03-30T23:07:49.680Z,1.70
2023-03-30T23:10:22.433Z,2.53
2023-03-30T23:12:50.067Z,2.88
2023-03-30T23:15:18.794Z,2.00
2023-03-30T23:17:47.604Z,2.65
2023-03-30T23:20:15.571Z,2.60
2023-03-30T23:22:42.802Z,3.17
2023-03-30T23:25:10.972Z,3.28
2023-03-30T23:27:38.187Z,2.63
2023-03-30T23:30:06.457Z,2.95
2023-03-30T23:32:34.944Z,2.47
2023-03-30T23:35:05.306Z,2.75
2023-03-30T23:37:32.708Z,2.40
2023-03-30T23:40:02.196Z,2.33
2023-03-30T23:42:29.331Z,2.97
2023-03-30T23:44:56.477Z,3.40
2023-03-30T23:47:23.834Z,2.72
2023-03-30T23:49:50.907Z,2.15
2023-03-30T23:52:17.937Z,3.38
2023-03-30T23:54:44.920Z,2.20
2023-03-30T23:57:12.260Z,4.13
2023-03-30T23:59:39.407Z,3.15
